createdAt,value
2023-03-17T00:00:45.460Z,2.90
2023-03-17T00:03:22.864Z,2.20
2023-03-17T00:05:53.372Z,1.67
2023-03-17T00:08:27.216Z,1.80
2023-03-17T00:10:56.261Z,2.20
2023-03-17T00:13:25.046Z,3.30
2023-03-17T00:16:00.187Z,3.63
2023-03-17T00:18:30.416Z,2.47
2023-03-17T00:20:59.843Z,2.10
2023-03-17T00:23:29.874Z,1.77
2023-03-17T00:25:58.059Z,2.70
2023-03-17T00:28:28.787Z,4.00
2023-03-17T00:31:00.827Z,2.60
2023-03-17T00:33:33.118Z,3.57
2023-03-17T00:36:02.092Z,2.63
2023-03-17T00:38:31.808Z,2.07
2023-03-17T00:41:00.146Z,2.90
2023-03-17T00:43:30.585Z,2.13
2023-03-17T00:45:59.003Z,1.90
2023-03-17T00:48:29.823Z,2.87
2023-03-17T00:50:57.994Z,5.93
2023-03-17T00:53:31.385Z,1.57
2023-03-17T00:56:00.786Z,3.63
2023-03-17T00:58:32.597Z,1.53
2023-03-17T01:01:02.210Z,2.03
2023-03-17T01:03:30.998Z,1.43
2023-03-17T01:05:59.561Z,1.50
2023-03-17T01:08:29.990Z,1.50
2023-03-17T01:11:00.396Z,2.37
2023-03-17T01:13:29.188Z,2.33
2023-03-17T01:15:57.673Z,6.10
2023-03-17T01:18:27.027Z,3.37
2023-03-17T01:20:55.239Z,3.10
2023-03-17T01:23:23.532Z,2.47
2023-03-17T01:25:51.731Z,2.70
2023-03-17T01:28:22.089Z,2.40
2023-03-17T01:30:51.013Z,2.53
2023-03-17T01:33:19.313Z,2.10
2023-03-17T01:35:47.506Z,2.23
2023-03-17T01:38:16.204Z,2.07
2023-03-17T01:40:49.435Z,2.53
2023-03-17T01:43:23.985Z,3.43
2023-03-17T01:46:25.762Z,2.30
2023-03-17T01:49:19.266Z,1.57
2023-03-17T01:52:06.160Z,1.77
2023-03-17T01:54:40.877Z,2.20
2023-03-17T01:57:14.618Z,1.80
2023-03-17T01:59:51.340Z,3.83
2023-03-17T02:02:25.560Z,2.50
2023-03-17T02:04:54.313Z,2.47
2023-03-17T02:07:26.529Z,2.90
2023-03-17T02:09:57.045Z,2.00
2023-03-17T02:12:30.254Z,2.10
2023-03-17T02:15:00.064Z,2.67
2023-03-17T02:17:29.954Z,1.90
2023-03-17T02:19:58.339Z,2.20
2023-03-17T02:22:28.228Z,3.40
2023-03-17T02:25:00.742Z,2.47
2023-03-17T02:27:34.950Z,1.93
2023-03-17T02:30:03.267Z,2.70
2023-03-17T02:32:31.451Z,1.50
2023-03-17T02:34:59.648Z,2.27
2023-03-17T02:37:29.289Z,3.77
2023-03-17T02:39:57.761Z,2.27
2023-03-17T02:42:25.937Z,3.20
2023-03-17T02:44:54.184Z,2.93
2023-03-17T02:47:22.632Z,3.83
2023-03-17T02:49:51.384Z,2.13
2023-03-17T02:52:19.660Z,2.13
2023-03-17T02:54:49.416Z,5.00
2023-03-17T02:57:17.627Z,3.47
2023-03-17T02:59:45.812Z,2.07
2023-03-17T03:02:14.202Z,2.57
2023-03-17T03:04:43.050Z,3.53
2023-03-17T03:07:12.494Z,3.20
2023-03-17T03:09:41.937Z,3.40
2023-03-17T03:12:12.066Z,1.60
2023-03-17T03:14:40.827Z,2.03
2023-03-17T03:17:09.622Z,2.93
2023-03-17T03:19:38.143Z,5.33
2023-03-17T03:22:06.510Z,2.87
2023-03-17T03:24:34.712Z,4.43
2023-03-17T03:27:02.909Z,2.30
2023-03-17T03:29:32.430Z,1.67
2023-03-17T03:32:00.729Z,2.27
2023-03-17T03:34:29.136Z,1.60
2023-03-17T03:36:57.493Z,1.80
2023-03-17T03:39:25.705Z,2.87
2023-03-17T03:41:57.224Z,1.90
2023-03-17T03:44:25.901Z,2.80
2023-03-17T03:46:55.387Z,1.60
2023-03-17T03:49:24.334Z,3.60
2023-03-17T03:51:52.486Z,2.00
2023-03-17T03:54:20.758Z,1.43
2023-03-17T03:56:48.899Z,2.00
2023-03-17T03:59:17.316Z,2.07
2023-03-17T04:01:45.650Z,2.57
2023-03-17T04:04:15.382Z,2.23
2023-03-17T04:06:43.564Z,3.90
2023-03-17T04:09:12.616Z,2.10
2023-03-17T04:11:40.795Z,4.67
2023-03-17T04:14:08.959Z,2.50
2023-03-17T04:16:37.181Z,3.17
2023-03-17T04:19:05.434Z,3.97
2023-03-17T04:21:34.954Z,2.83
2023-03-17T04:24:05.106Z,2.37
2023-03-17T04:26:33.421Z,3.30
2023-03-17T04:29:01.647Z,2.47
2023-03-17T04:31:29.788Z,2.67
2023-03-17T04:33:57.946Z,3.33
2023-03-17T04:36:27.026Z,2.90
2023-03-17T04:38:56.540Z,3.47
2023-03-17T04:41:24.679Z,1.97
2023-03-17T04:43:52.762Z,3.73
2023-03-17T04:46:20.856Z,3.03
2023-03-17T04:48:48.980Z,1.93
2023-03-17T04:51:17.193Z,4.57
2023-03-17T04:53:46.180Z,1.90
2023-03-17T04:56:16.120Z,1.80
2023-03-17T04:58:44.355Z,3.33
2023-03-17T05:01:12.625Z,3.30
2023-03-17T05:03:41.122Z,3.17
2023-03-17T05:06:09.438Z,3.50
2023-03-17T05:08:37.889Z,3.03
2023-03-17T05:11:06.636Z,2.13
2023-03-17T05:13:36.221Z,2.80
2023-03-17T05:16:04.694Z,2.10
2023-03-17T05:18:32.847Z,5.00
2023-03-17T05:21:01.109Z,2.83
2023-03-17T05:23:29.492Z,3.07
2023-03-17T05:25:57.658Z,5.20
2023-03-17T05:28:26.667Z,3.03
2023-03-17T05:30:56.688Z,2.93
2023-03-17T05:33:24.904Z,2.20
2023-03-17T05:35:53.795Z,1.77
2023-03-17T05:38:21.969Z,3.23
2023-03-17T05:40:52.805Z,1.73
2023-03-17T05:43:20.997Z,3.37
2023-03-17T05:45:50.494Z,2.07
2023-03-17T05:48:20.004Z,4.43
2023-03-17T05:50:48.434Z,3.97
2023-03-17T05:53:17.387Z,6.40
2023-03-17T05:55:48.124Z,5.70
2023-03-17T05:58:16.990Z,3.53
2023-03-17T06:00:45.447Z,2.33
2023-03-17T06:03:13.992Z,5.70
2023-03-17T06:05:43.610Z,2.37
2023-03-17T06:08:12.218Z,3.63
2023-03-17T06:10:41.260Z,2.70
2023-03-17T06:13:09.523Z,2.43
2023-03-17T06:15:37.983Z,3.00
2023-03-17T06:18:07.399Z,2.60
2023-03-17T06:20:36.623Z,4.30
2023-03-17T06:23:06.810Z,2.53
2023-03-17T06:25:37.010Z,2.00
2023-03-17T06:28:06.699Z,3.20
2023-03-17T06:30:38.742Z,2.93
2023-03-17T06:33:08.424Z,5.57
2023-03-17T06:35:37.218Z,3.73
2023-03-17T06:38:06.996Z,3.87
2023-03-17T06:40:35.123Z,3.27
2023-03-17T06:43:03.438Z,3.90
2023-03-17T06:45:33.738Z,5.90
2023-03-17T06:48:02.330Z,2.10
2023-03-17T06:50:30.757Z,2.83
2023-03-17T06:52:58.896Z,2.67
2023-03-17T06:55:29.073Z,4.60
2023-03-17T06:57:58.933Z,2.50
2023-03-17T07:00:28.271Z,2.13
2023-03-17T07:02:56.471Z,4.27
2023-03-17T07:05:24.815Z,1.97
2023-03-17T07:07:53.471Z,1.80
2023-03-17T07:10:23.076Z,5.07
2023-03-17T07:12:52.771Z,1.93
2023-03-17T07:15:22.020Z,2.40
2023-03-17T07:17:50.282Z,1.53
2023-03-17T07:20:18.951Z,3.37
2023-03-17T07:22:47.091Z,2.77
2023-03-17T07:25:15.366Z,3.30
2023-03-17T07:27:43.558Z,4.30
2023-03-17T07:30:18.760Z,2.60
2023-03-17T07:32:47.577Z,2.67
2023-03-17T07:35:16.385Z,2.30
2023-03-17T07:37:44.585Z,3.57
2023-03-17T07:40:13.904Z,1.87
2023-03-17T07:42:42.297Z,4.50
2023-03-17T07:45:12.979Z,1.77
2023-03-17T07:47:41.576Z,2.47
2023-03-17T07:50:11.149Z,1.57
2023-03-17T07:52:39.430Z,3.43
2023-03-17T07:55:10.574Z,3.07
2023-03-17T07:57:39.049Z,3.03
2023-03-17T08:00:10.640Z,3.50
2023-03-17T08:02:42.801Z,2.43
2023-03-17T08:05:12.109Z,2.53
2023-03-17T08:07:40.468Z,2.67
2023-03-17T08:10:11.675Z,2.63
2023-03-17T08:12:41.651Z,2.70
2023-03-17T08:15:11.268Z,3.97
2023-03-17T08:17:40.160Z,1.90
2023-03-17T08:20:12.236Z,3.60
2023-03-17T08:22:40.650Z,2.83
2023-03-17T08:25:11.484Z,2.17
2023-03-17T08:27:40.043Z,2.60
2023-03-17T08:30:10.055Z,1.73
2023-03-17T08:32:38.492Z,1.03
2023-03-17T08:35:11.752Z,2.80
2023-03-17T08:37:39.955Z,2.80
2023-03-17T08:40:09.974Z,1.33
2023-03-17T08:42:38.524Z,2.40
2023-03-17T08:45:07.872Z,2.67
2023-03-17T08:47:36.060Z,1.83
2023-03-17T08:50:08.475Z,2.03
2023-03-17T08:52:38.558Z,1.50
2023-03-17T08:55:08.899Z,2.60
2023-03-17T08:57:37.930Z,3.50
2023-03-17T09:00:11.060Z,1.95
2023-03-17T09:02:39.614Z,2.88
2023-03-17T09:05:09.397Z,3.47
2023-03-17T09:07:39.069Z,2.00
2023-03-17T09:10:10.858Z,1.98
2023-03-17T09:12:39.450Z,2.03
2023-03-17T09:15:10.853Z,2.17
2023-03-17T09:17:39.252Z,2.30
2023-03-17T09:20:09.289Z,2.78
2023-03-17T09:22:38.895Z,4.13
2023-03-17T09:25:08.060Z,2.92
2023-03-17T09:27:36.362Z,2.22
2023-03-17T09:30:05.864Z,1.98
2023-03-17T09:32:34.097Z,2.30
2023-03-17T09:35:03.847Z,1.55
2023-03-17T09:37:32.412Z,1.65
2023-03-17T09:40:04.738Z,2.75
2023-03-17T09:42:44.298Z,2.05
2023-03-17T09:45:26.114Z,1.52
2023-03-17T09:48:12.990Z,1.67
2023-03-17T09:50:49.807Z,2.15
2023-03-17T09:53:22.902Z,1.42
2023-03-17T09:55:58.277Z,3.72
2023-03-17T09:58:33.187Z,2.42
2023-03-17T10:01:05.059Z,3.70
2023-03-17T10:03:34.168Z,1.92
2023-03-17T10:06:37.562Z,2.28
2023-03-17T10:09:27.274Z,1.13
2023-03-17T10:12:09.694Z,3.13
2023-03-17T10:14:59.451Z,1.23
2023-03-17T10:17:33.406Z,1.45
2023-03-17T10:20:11.318Z,1.67
2023-03-17T10:22:46.139Z,2.70
2023-03-17T10:25:18.189Z,3.92
2023-03-17T10:27:58.076Z,3.17
2023-03-17T10:30:27.365Z,2.03
2023-03-17T10:33:01.839Z,1.92
2023-03-17T10:35:35.898Z,1.25
2023-03-17T10:38:17.058Z,2.83
2023-03-17T10:40:48.839Z,3.50
2023-03-17T10:43:24.116Z,1.25
2023-03-17T10:46:04.489Z,0.90
2023-03-17T10:48:38.497Z,4.00
2023-03-17T10:51:11.101Z,2.72
2023-03-17T10:53:43.747Z,3.25
2023-03-17T10:56:24.986Z,2.08
2023-03-17T10:58:56.900Z,2.05
2023-03-17T11:01:36.646Z,2.35
2023-03-17T11:04:21.786Z,1.42
2023-03-17T11:06:52.396Z,3.47
2023-03-17T11:09:21.508Z,0.93
2023-03-17T11:12:05.148Z,2.15
2023-03-17T11:14:35.290Z,1.85
2023-03-17T11:17:17.630Z,3.30
2023-03-17T11:20:04.137Z,1.80
2023-03-17T11:22:40.007Z,1.05
2023-03-17T11:25:15.168Z,1.10
2023-03-17T11:27:49.987Z,2.03
2023-03-17T11:30:32.752Z,1.20
2023-03-17T11:33:14.640Z,2.30
2023-03-17T11:35:55.975Z,2.90
2023-03-17T11:38:28.179Z,1.52
2023-03-17T11:41:34.975Z,1.45
2023-03-17T11:44:40.236Z,1.48
2023-03-17T11:47:28.821Z,2.17
2023-03-17T11:50:08.669Z,1.02
2023-03-17T11:52:53.426Z,1.33
2023-03-17T11:55:28.441Z,0.60
2023-03-17T11:58:02.419Z,1.33
2023-03-17T12:00:35.192Z,1.13
2023-03-17T12:03:17.678Z,1.67
2023-03-17T12:05:52.068Z,1.08
2023-03-17T12:08:32.386Z,1.70
2023-03-17T12:11:06.634Z,2.28
2023-03-17T12:13:41.614Z,0.60
2023-03-17T12:16:17.306Z,2.22
2023-03-17T12:18:59.105Z,2.40
2023-03-17T12:21:36.849Z,1.10
2023-03-17T12:24:14.629Z,0.82
2023-03-17T12:26:55.959Z,2.50
2023-03-17T12:29:37.712Z,0.80
2023-03-17T12:32:15.471Z,0.93
2023-03-17T12:34:52.394Z,0.68
2023-03-17T12:37:22.600Z,1.75
2023-03-17T12:40:00.655Z,2.10
2023-03-17T12:42:43.400Z,1.92
2023-03-17T12:45:53.231Z,1.60
2023-03-17T12:49:14.542Z,0.80
2023-03-17T12:52:07.704Z,0.93
2023-03-17T12:54:39.619Z,0.77
2023-03-17T12:57:18.233Z,2.45
2023-03-17T12:59:50.278Z,2.08
2023-03-17T13:02:33.851Z,0.68
2023-03-17T13:05:08.048Z,1.27
2023-03-17T13:07:47.694Z,1.45
2023-03-17T13:10:39.869Z,0.75
2023-03-17T13:13:36.149Z,1.02
2023-03-17T13:16:06.842Z,2.22
2023-03-17T13:19:01.357Z,0.75
2023-03-17T13:21:32.909Z,0.98
2023-03-17T13:24:48.028Z,1.30
2023-03-17T13:27:48.333Z,1.15
2023-03-17T13:30:57.132Z,2.08
2023-03-17T13:33:32.815Z,1.05
2023-03-17T13:36:35.341Z,2.10
2023-03-17T13:39:45.933Z,1.33
2023-03-17T13:43:00.008Z,1.17
2023-03-17T13:45:38.585Z,1.48
2023-03-17T13:48:39.004Z,0.70
2023-03-17T13:51:21.995Z,0.73
2023-03-17T13:53:56.392Z,0.88
2023-03-17T13:56:30.340Z,1.33
2023-03-17T13:59:15.177Z,0.70
2023-03-17T14:01:51.201Z,1.13
2023-03-17T14:04:25.451Z,1.02
2023-03-17T14:07:00.470Z,1.58
2023-03-17T14:09:37.142Z,1.17
2023-03-17T14:12:14.056Z,0.77
2023-03-17T14:14:53.849Z,7.13
2023-03-17T14:17:27.023Z,2.47
2023-03-17T14:20:06.925Z,2.22
2023-03-17T14:22:44.935Z,0.93
2023-03-17T14:25:19.112Z,0.57
2023-03-17T14:27:52.977Z,1.65
2023-03-17T14:30:26.459Z,3.58
2023-03-17T14:33:04.850Z,1.45
2023-03-17T14:35:35.184Z,1.00
2023-03-17T14:38:04.303Z,2.38
2023-03-17T14:40:36.865Z,0.60
2023-03-17T14:43:05.466Z,1.50
2023-03-17T14:45:50.833Z,1.02
2023-03-17T14:48:26.576Z,0.60
2023-03-17T14:50:57.331Z,1.00
2023-03-17T14:53:26.338Z,0.98
2023-03-17T14:55:54.786Z,0.65
2023-03-17T14:58:28.335Z,1.30
2023-03-17T15:01:04.188Z,1.75
2023-03-17T15:03:38.462Z,1.58
2023-03-17T15:06:24.163Z,3.40
2023-03-17T15:08:53.672Z,0.82
2023-03-17T15:11:26.999Z,1.27
2023-03-17T15:14:06.943Z,1.27
2023-03-17T15:16:37.817Z,1.30
2023-03-17T15:19:10.215Z,0.75
2023-03-17T15:21:42.817Z,1.33
2023-03-17T15:24:40.745Z,1.30
2023-03-17T15:27:16.855Z,1.45
2023-03-17T15:29:45.250Z,1.50
2023-03-17T15:32:20.041Z,2.10
2023-03-17T15:34:49.446Z,0.75
2023-03-17T15:37:20.498Z,1.88
2023-03-17T15:39:50.566Z,1.73
2023-03-17T15:42:21.654Z,3.65
2023-03-17T15:44:49.809Z,1.58
2023-03-17T15:47:22.858Z,0.77
2023-03-17T15:49:52.499Z,2.45
2023-03-17T15:52:24.992Z,1.45
2023-03-17T15:54:54.768Z,3.97
2023-03-17T15:57:23.857Z,2.42
2023-03-17T15:59:52.581Z,1.38
2023-03-17T16:02:33.423Z,2.38
2023-03-17T16:05:06.248Z,1.40
2023-03-17T16:07:34.454Z,4.88
2023-03-17T16:10:02.743Z,9.88
2023-03-17T16:12:31.022Z,6.07
2023-03-17T16:15:00.704Z,4.65
2023-03-17T16:17:32.291Z,4.50
2023-03-17T16:20:01.327Z,1.95
2023-03-17T16:22:42.564Z,4.13
2023-03-17T16:25:25.945Z,3.88
2023-03-17T16:27:56.701Z,0.80
2023-03-17T16:30:30.057Z,2.80
2023-03-17T16:33:05.377Z,1.10
2023-03-17T16:35:33.558Z,1.65
2023-03-17T16:38:01.700Z,3.05
2023-03-17T16:40:36.479Z,1.58
2023-03-17T16:43:19.135Z,2.40
2023-03-17T16:45:55.349Z,3.22
2023-03-17T16:48:25.491Z,1.88
2023-03-17T16:50:55.161Z,1.58
2023-03-17T16:53:24.974Z,1.08
2023-03-17T16:55:55.017Z,5.47
2023-03-17T16:58:26.492Z,3.03
2023-03-17T17:01:00.288Z,2.72
2023-03-17T17:03:31.293Z,1.98
2023-03-17T17:05:59.720Z,2.58
2023-03-17T17:08:28.025Z,3.85
2023-03-17T17:10:57.271Z,3.70
2023-03-17T17:13:26.126Z,2.35
2023-03-17T17:15:56.203Z,2.53
2023-03-17T17:18:24.813Z,2.67
2023-03-17T17:20:56.672Z,2.15
2023-03-17T17:23:28.241Z,5.15
2023-03-17T17:25:56.628Z,2.95
2023-03-17T17:28:27.112Z,3.58
2023-03-17T17:30:55.538Z,4.28
2023-03-17T17:33:24.311Z,4.03
2023-03-17T17:35:54.340Z,3.25
2023-03-17T17:38:26.273Z,4.00
2023-03-17T17:40:56.432Z,10.95
2023-03-17T17:43:25.413Z,9.65
2023-03-17T17:45:54.345Z,12.30
2023-03-17T17:48:26.338Z,9.80
2023-03-17T17:50:57.703Z,9.10
2023-03-17T17:53:26.232Z,11.10
2023-03-17T17:55:54.456Z,9.18
2023-03-17T17:58:26.469Z,18.83
2023-03-17T18:00:56.900Z,13.90
2023-03-17T18:03:26.194Z,10.55
2023-03-17T18:05:59.021Z,9.00
2023-03-17T18:08:27.495Z,11.60
2023-03-17T18:10:58.668Z,9.52
2023-03-17T18:13:27.113Z,9.15
2023-03-17T18:15:55.297Z,8.30
2023-03-17T18:18:23.870Z,8.70
2023-03-17T18:20:53.809Z,10.27
2023-03-17T18:23:23.372Z,10.27
2023-03-17T18:25:51.992Z,9.88
2023-03-17T18:28:20.208Z,11.75
2023-03-17T18:30:48.507Z,12.50
2023-03-17T18:33:20.476Z,9.25
2023-03-17T18:35:52.091Z,10.65
2023-03-17T18:38:20.438Z,10.25
2023-03-17T18:40:50.119Z,7.38
2023-03-17T18:43:18.416Z,8.52
2023-03-17T18:45:46.848Z,8.70
2023-03-17T18:48:15.224Z,10.80
2023-03-17T18:50:43.693Z,10.85
2023-03-17T18:53:12.157Z,11.00
2023-03-17T18:55:41.087Z,9.32
2023-03-17T18:58:10.812Z,9.43
2023-03-17T19:00:39.316Z,12.35
2023-03-17T19:03:08.002Z,8.40
2023-03-17T19:05:39.418Z,9.82
2023-03-17T19:08:11.521Z,7.70
2023-03-17T19:10:43.006Z,9.40
2023-03-17T19:13:13.274Z,9.13
2023-03-17T19:15:42.115Z,7.78
2023-03-17T19:18:10.678Z,7.82
2023-03-17T19:20:38.928Z,9.20
2023-03-17T19:23:07.880Z,8.13
2023-03-17T19:25:36.810Z,9.13
2023-03-17T19:28:06.251Z,8.13
2023-03-17T19:30:35.985Z,8.18
2023-03-17T19:33:04.445Z,7.35
2023-03-17T19:35:33.002Z,8.93
2023-03-17T19:38:01.265Z,10.73
2023-03-17T19:40:29.537Z,10.48
2023-03-17T19:42:57.958Z,8.43
2023-03-17T19:45:26.282Z,8.95
2023-03-17T19:47:56.023Z,9.57
2023-03-17T19:50:24.553Z,8.05
2023-03-17T19:52:53.695Z,8.55
2023-03-17T19:55:24.565Z,9.38
2023-03-17T19:57:53.069Z,7.97
2023-03-17T20:00:22.598Z,6.47
2023-03-17T20:02:51.977Z,5.53
2023-03-17T20:05:21.797Z,8.80
2023-03-17T20:07:50.002Z,7.38
2023-03-17T20:10:18.759Z,5.03
2023-03-17T20:12:46.937Z,5.38
2023-03-17T20:15:16.409Z,3.85
2023-03-17T20:17:44.860Z,4.80
2023-03-17T20:20:15.374Z,6.68
2023-03-17T20:22:45.198Z,9.38
2023-03-17T20:25:13.654Z,9.45
2023-03-17T20:27:42.413Z,7.78
2023-03-17T20:30:13.099Z,7.95
2023-03-17T20:32:41.421Z,4.85
2023-03-17T20:35:10.349Z,6.03
2023-03-17T20:37:38.706Z,6.30
2023-03-17T20:40:10.696Z,8.68
2023-03-17T20:42:38.939Z,11.07
2023-03-17T20:45:08.857Z,11.55
2023-03-17T20:47:37.611Z,13.80
2023-03-17T20:50:08.595Z,10.07
2023-03-17T20:52:38.126Z,11.50
2023-03-17T20:55:09.233Z,13.90
2023-03-17T20:57:37.968Z,20.42
2023-03-17T21:00:08.208Z,20.57
2023-03-17T21:02:36.503Z,20.92
2023-03-17T21:05:05.327Z,19.57
2023-03-17T21:07:33.638Z,22.23
2023-03-17T21:10:02.296Z,19.48
2023-03-17T21:12:31.844Z,17.37
2023-03-17T21:15:00.707Z,15.93
2023-03-17T21:17:28.907Z,15.43
2023-03-17T21:19:57.085Z,18.15
2023-03-17T21:22:25.628Z,14.10
2023-03-17T21:24:54.185Z,15.30
2023-03-17T21:27:22.422Z,12.77
2023-03-17T21:29:52.164Z,11.87
2023-03-17T21:32:20.425Z,10.20
2023-03-17T21:34:48.556Z,8.30
2023-03-17T21:37:18.257Z,8.90
2023-03-17T21:39:46.578Z,7.50
2023-03-17T21:42:14.720Z,7.83
2023-03-17T21:44:45.622Z,8.30
2023-03-17T21:47:15.371Z,7.93
2023-03-17T21:49:43.473Z,7.50
2023-03-17T21:52:12.612Z,10.00
2023-03-17T21:54:40.802Z,7.73
2023-03-17T21:57:09.268Z,6.33
2023-03-17T21:59:37.708Z,4.93
2023-03-17T22:02:05.958Z,5.90
2023-03-17T22:04:35.481Z,6.50
2023-03-17T22:07:04.477Z,7.63
2023-03-17T22:09:32.647Z,6.20
2023-03-17T22:12:00.788Z,6.33
2023-03-17T22:14:28.973Z,8.23
2023-03-17T22:16:57.217Z,5.63
2023-03-17T22:19:25.555Z,8.33
2023-03-17T22:21:55.822Z,6.17
2023-03-17T22:24:25.391Z,5.40
2023-03-17T22:26:53.979Z,5.97
2023-03-17T22:29:22.151Z,6.93
2023-03-17T22:31:50.707Z,5.73
2023-03-17T22:34:19.289Z,12.33
2023-03-17T22:36:47.409Z,6.60
2023-03-17T22:39:17.324Z,8.00
2023-03-17T22:41:45.763Z,12.97
2023-03-17T22:44:14.066Z,13.67
2023-03-17T22:46:42.704Z,9.83
2023-03-17T22:49:11.483Z,13.60
2023-03-17T22:51:41.168Z,12.40
2023-03-17T22:54:11.260Z,12.23
2023-03-17T22:56:41.034Z,11.80
2023-03-17T22:59:09.206Z,8.63
2023-03-17T23:01:37.383Z,8.83
2023-03-17T23:04:07.693Z,10.47
2023-03-17T23:06:37.906Z,7.73
2023-03-17T23:09:06.284Z,8.13
2023-03-17T23:11:34.447Z,9.43
2023-03-17T23:14:04.373Z,12.53
2023-03-17T23:16:32.817Z,10.27
2023-03-17T23:19:01.175Z,11.13
2023-03-17T23:21:33.896Z,7.87
2023-03-17T23:24:03.869Z,9.23
2023-03-17T23:26:35.794Z,9.67
2023-03-17T23:29:06.918Z,9.37
2023-03-17T23:31:36.798Z,9.87
2023-03-17T23:34:06.612Z,8.60
2023-03-17T23:36:39.861Z,9.60
2023-03-17T23:39:09.670Z,8.07
2023-03-17T23:41:38.239Z,9.47
2023-03-17T23:44:08.372Z,9.03
2023-03-17T23:46:37.135Z,8.30
2023-03-17T23:49:07.172Z,9.07
2023-03-17T23:51:35.665Z,24.30
2023-03-17T23:54:04.074Z,8.77
2023-03-17T23:56:33.404Z,6.10
2023-03-17T23:59:01.628Z,6.00
